sensor_id;sensor_type;location;lat;lon;timestamp;P1;durP1;ratioP1;P2;durP2;ratioP2
10537;SDS011;5317;49.048;8.468;2022-09-01T00:01:46;5.57;;;3.87;;
10537;SDS011;5317;49.048;8.468;2022-09-01T00:04:17;4.63;;;3.77;;
10537;SDS011;5317;49.048;8.468;2022-09-01T00:06:47;6.97;;;3.70;;
10537;SDS011;5317;49.048;8.468;2022-09-01T00:09:16;5.60;;;3.90;;
10537;SDS011;5317;49.048;8.468;2022-09-01T00:11:46;4.10;;;3.70;;
10537;SDS011;5317;49.048;8.468;2022-09-01T00:14:17;4.43;;;3.70;;
10537;SDS011;5317;49.048;8.468;2022-09-01T00:16:49;4.37;;;3.70;;
10537;SDS011;5317;49.048;8.468;2022-09-01T00:19:18;4.17;;;3.73;;
10537;SDS011;5317;49.048;8.468;2022-09-01T00:21:45;5.20;;;4.37;;
10537;SDS011;5317;49.048;8.468;2022-09-01T00:24:14;7.07;;;5.17;;
10537;SDS011;5317;49.048;8.468;2022-09-01T00:26:44;7.93;;;4.97;;
10537;SDS011;5317;49.048;8.468;2022-09-01T00:29:12;7.57;;;4.73;;
10537;SDS011;5317;49.048;8.468;2022-09-01T00:31:40;4.63;;;4.23;;
10537;SDS011;5317;49.048;8.468;2022-09-01T00:34:09;5.27;;;4.77;;
10537;SDS011;5317;49.048;8.468;2022-09-01T00:36:37;6.97;;;4.63;;
10537;SDS011;5317;49.048;8.468;2022-09-01T00:39:04;4.87;;;4.47;;
10537;SDS011;5317;49.048;8.468;2022-09-01T00:41:34;5.30;;;4.47;;
10537;SDS011;5317;49.048;8.468;2022-09-01T00:44:10;7.73;;;4.80;;
10537;SDS011;5317;49.048;8.468;2022-09-01T00:46:40;4.60;;;4.20;;
10537;SDS011;5317;49.048;8.468;2022-09-01T00:49:13;4.73;;;4.07;;
10537;SDS011;5317;49.048;8.468;2022-09-01T00:51:47;5.17;;;4.20;;
10537;SDS011;5317;49.048;8.468;2022-09-01T00:54:20;5.30;;;4.47;;
10537;SDS011;5317;49.048;8.468;2022-09-01T00:56:51;5.67;;;4.63;;
10537;SDS011;5317;49.048;8.468;2022-09-01T00:59:19;5.50;;;4.10;;
10537;SDS011;5317;49.048;8.468;2022-09-01T01:01:49;6.57;;;4.63;;
10537;SDS011;5317;49.048;8.468;2022-09-01T01:04:18;4.87;;;4.07;;
10537;SDS011;5317;49.048;8.468;2022-09-01T01:06:46;7.90;;;3.93;;
10537;SDS011;5317;49.048;8.468;2022-09-01T01:09:23;4.37;;;3.97;;
10537;SDS011;5317;49.048;8.468;2022-09-01T01:11:54;4.47;;;4.07;;
10537;SDS011;5317;49.048;8.468;2022-09-01T01:14:23;4.17;;;3.73;;
10537;SDS011;5317;49.048;8.468;2022-09-01T01:16:55;4.97;;;4.47;;
10537;SDS011;5317;49.048;8.468;2022-09-01T01:19:30;4.70;;;4.20;;
10537;SDS011;5317;49.048;8.468;2022-09-01T01:22:28;4.90;;;4.40;;
10537;SDS011;5317;49.048;8.468;2022-09-01T01:25:25;6.03;;;4.33;;
10537;SDS011;5317;49.048;8.468;2022-09-01T01:28:01;4.63;;;4.00;;
10537;SDS011;5317;49.048;8.468;2022-09-01T01:30:40;4.73;;;4.23;;
10537;SDS011;5317;49.048;8.468;2022-09-01T01:33:16;4.80;;;4.37;;
10537;SDS011;5317;49.048;8.468;2022-09-01T01:35:45;4.60;;;4.20;;
10537;SDS011;5317;49.048;8.468;2022-09-01T01:38:14;4.70;;;4.30;;
10537;SDS011;5317;49.048;8.468;2022-09-01T01:40:46;5.17;;;4.30;;
10537;SDS011;5317;49.048;8.468;2022-09-01T01:43:14;4.10;;;3.70;;
10537;SDS011;5317;49.048;8.468;2022-09-01T01:45:46;5.30;;;4.10;;
10537;SDS011;5317;49.048;8.468;2022-09-01T01:48:16;4.80;;;4.30;;
10537;SDS011;5317;49.048;8.468;2022-09-01T01:50:48;4.57;;;4.07;;
10537;SDS011;5317;49.048;8.468;2022-09-01T01:53:18;5.33;;;4.70;;
10537;SDS011;5317;49.048;8.468;2022-09-01T01:55:48;6.27;;;4.20;;
10537;SDS011;5317;49.048;8.468;2022-09-01T01:58:16;5.03;;;4.63;;
10537;SDS011;5317;49.048;8.468;2022-09-01T02:00:44;4.37;;;3.97;;
10537;SDS011;5317;49.048;8.468;2022-09-01T02:03:15;11.03;;;4.33;;
10537;SDS011;5317;49.048;8.468;2022-09-01T02:05:46;6.50;;;4.20;;
10537;SDS011;5317;49.048;8.468;2022-09-01T02:08:16;5.00;;;4.10;;
10537;SDS011;5317;49.048;8.468;2022-09-01T02:10:49;4.37;;;4.03;;
10537;SDS011;5317;49.048;8.468;2022-09-01T02:13:20;4.63;;;4.10;;
10537;SDS011;5317;49.048;8.468;2022-09-01T02:15:55;4.30;;;3.90;;
10537;SDS011;5317;49.048;8.468;2022-09-01T02:18:29;7.27;;;4.17;;
10537;SDS011;5317;49.048;8.468;2022-09-01T02:21:00;5.07;;;4.27;;
10537;SDS011;5317;49.048;8.468;2022-09-01T02:23:35;4.80;;;4.40;;
10537;SDS011;5317;49.048;8.468;2022-09-01T02:26:06;5.83;;;4.43;;
10537;SDS011;5317;49.048;8.468;2022-09-01T02:28:36;6.60;;;4.30;;
10537;SDS011;5317;49.048;8.468;2022-09-01T02:31:06;6.27;;;4.10;;
10537;SDS011;5317;49.048;8.468;2022-09-01T02:33:35;4.47;;;4.07;;
10537;SDS011;5317;49.048;8.468;2022-09-01T02:36:05;4.83;;;4.33;;
10537;SDS011;5317;49.048;8.468;2022-09-01T02:38:37;5.60;;;4.13;;
10537;SDS011;5317;49.048;8.468;2022-09-01T02:41:08;5.27;;;4.07;;
10537;SDS011;5317;49.048;8.468;2022-09-01T02:43:36;5.73;;;4.20;;
10537;SDS011;5317;49.048;8.468;2022-09-01T02:46:04;4.80;;;4.40;;
10537;SDS011;5317;49.048;8.468;2022-09-01T02:48:33;4.87;;;4.40;;
10537;SDS011;5317;49.048;8.468;2022-09-01T02:51:05;4.43;;;3.93;;
10537;SDS011;5317;49.048;8.468;2022-09-01T02:53:37;5.53;;;4.60;;
10537;SDS011;5317;49.048;8.468;2022-09-01T02:56:08;5.13;;;4.63;;
10537;SDS011;5317;49.048;8.468;2022-09-01T02:58:38;5.37;;;4.57;;
10537;SDS011;5317;49.048;8.468;2022-09-01T03:01:11;4.97;;;4.47;;
10537;SDS011;5317;49.048;8.468;2022-09-01T03:03:45;5.13;;;4.60;;
10537;SDS011;5317;49.048;8.468;2022-09-01T03:06:12;5.03;;;4.53;;
10537;SDS011;5317;49.048;8.468;2022-09-01T03:08:42;5.27;;;4.40;;
10537;SDS011;5317;49.048;8.468;2022-09-01T03:11:11;5.07;;;4.57;;
10537;SDS011;5317;49.048;8.468;2022-09-01T03:13:39;4.90;;;4.50;;
10537;SDS011;5317;49.048;8.468;2022-09-01T03:16:08;4.80;;;4.33;;
10537;SDS011;5317;49.048;8.468;2022-09-01T03:18:36;5.77;;;4.90;;
10537;SDS011;5317;49.048;8.468;2022-09-01T03:21:05;5.30;;;4.83;;
10537;SDS011;5317;49.048;8.468;2022-09-01T03:23:37;7.10;;;4.67;;
10537;SDS011;5317;49.048;8.468;2022-09-01T03:26:06;6.93;;;4.57;;
10537;SDS011;5317;49.048;8.468;2022-09-01T03:28:37;5.27;;;4.53;;
10537;SDS011;5317;49.048;8.468;2022-09-01T03:31:04;6.10;;;4.70;;
10537;SDS011;5317;49.048;8.468;2022-09-01T03:33:33;6.97;;;5.27;;
10537;SDS011;5317;49.048;8.468;2022-09-01T03:36:00;5.50;;;5.00;;
10537;SDS011;5317;49.048;8.468;2022-09-01T03:38:29;7.13;;;4.90;;
10537;SDS011;5317;49.048;8.468;2022-09-01T03:40:59;5.10;;;4.60;;
10537;SDS011;5317;49.048;8.468;2022-09-01T03:43:31;5.23;;;4.73;;
10537;SDS011;5317;49.048;8.468;2022-09-01T03:46:00;5.90;;;5.23;;
10537;SDS011;5317;49.048;8.468;2022-09-01T03:48:28;7.07;;;4.73;;
10537;SDS011;5317;49.048;8.468;2022-09-01T03:50:58;5.13;;;4.63;;
10537;SDS011;5317;49.048;8.468;2022-09-01T03:53:27;6.80;;;4.73;;
10537;SDS011;5317;49.048;8.468;2022-09-01T03:55:57;5.90;;;4.70;;
10537;SDS011;5317;49.048;8.468;2022-09-01T03:58:28;5.67;;;4.93;;
10537;SDS011;5317;49.048;8.468;2022-09-01T04:00:56;5.33;;;4.83;;
10537;SDS011;5317;49.048;8.468;2022-09-01T04:03:29;5.27;;;4.77;;
10537;SDS011;5317;49.048;8.468;2022-09-01T04:05:59;5.70;;;4.57;;
10537;SDS011;5317;49.048;8.468;2022-09-01T04:08:28;5.03;;;4.60;;
10537;SDS011;5317;49.048;8.468;2022-09-01T04:10:57;7.77;;;5.37;;
10537;SDS011;5317;49.048;8.468;2022-09-01T04:13:27;9.70;;;5.10;;
10537;SDS011;5317;49.048;8.468;2022-09-01T04:15:59;6.03;;;5.33;;
10537;SDS011;5317;49.048;8.468;2022-09-01T04:18:27;6.60;;;5.20;;
10537;SDS011;5317;49.048;8.468;2022-09-01T04:20:55;5.50;;;5.00;;
10537;SDS011;5317;49.048;8.468;2022-09-01T04:23:25;6.57;;;5.50;;
10537;SDS011;5317;49.048;8.468;2022-09-01T04:25:57;5.87;;;5.30;;
10537;SDS011;5317;49.048;8.468;2022-09-01T04:28:34;6.30;;;5.70;;
10537;SDS011;5317;49.048;8.468;2022-09-01T04:31:05;6.17;;;5.57;;
10537;SDS011;5317;49.048;8.468;2022-09-01T04:33:43;7.50;;;6.00;;
10537;SDS011;5317;49.048;8.468;2022-09-01T04:36:13;5.83;;;5.23;;
10537;SDS011;5317;49.048;8.468;2022-09-01T04:38:44;6.00;;;5.20;;
10537;SDS011;5317;49.048;8.468;2022-09-01T04:41:13;5.87;;;5.27;;
10537;SDS011;5317;49.048;8.468;2022-09-01T04:43:42;6.70;;;5.87;;
10537;SDS011;5317;49.048;8.468;2022-09-01T04:46:14;6.23;;;5.70;;
10537;SDS011;5317;49.048;8.468;2022-09-01T04:48:43;6.63;;;5.93;;
10537;SDS011;5317;49.048;8.468;2022-09-01T04:51:12;6.10;;;5.50;;
10537;SDS011;5317;49.048;8.468;2022-09-01T04:53:41;6.07;;;5.47;;
10537;SDS011;5317;49.048;8.468;2022-09-01T04:56:12;6.40;;;5.80;;
10537;SDS011;5317;49.048;8.468;2022-09-01T04:58:43;6.87;;;6.17;;
10537;SDS011;5317;49.048;8.468;2022-09-01T05:01:13;6.23;;;5.63;;
10537;SDS011;5317;49.048;8.468;2022-09-01T05:03:44;8.17;;;6.40;;
10537;SDS011;5317;49.048;8.468;2022-09-01T05:06:25;7.57;;;6.03;;
10537;SDS011;5317;49.048;8.468;2022-09-01T05:08:57;6.83;;;6.13;;
10537;SDS011;5317;49.048;8.468;2022-09-01T05:11:27;7.53;;;6.53;;
10537;SDS011;5317;49.048;8.468;2022-09-01T05:13:56;8.27;;;6.53;;
10537;SDS011;5317;49.048;8.468;2022-09-01T05:16:24;7.83;;;6.27;;
10537;SDS011;5317;49.048;8.468;2022-09-01T05:18:53;8.37;;;6.60;;
10537;SDS011;5317;49.048;8.468;2022-09-01T05:21:21;7.93;;;7.13;;
10537;SDS011;5317;49.048;8.468;2022-09-01T05:23:52;9.27;;;7.03;;
10537;SDS011;5317;49.048;8.468;2022-09-01T05:26:22;8.57;;;7.67;;
10537;SDS011;5317;49.048;8.468;2022-09-01T05:28:52;9.73;;;6.80;;
10537;SDS011;5317;49.048;8.468;2022-09-01T05:31:22;9.43;;;7.47;;
10537;SDS011;5317;49.048;8.468;2022-09-01T05:33:54;7.50;;;6.80;;
10537;SDS011;5317;49.048;8.468;2022-09-01T05:36:22;8.90;;;6.90;;
10537;SDS011;5317;49.048;8.468;2022-09-01T05:38:50;8.77;;;7.87;;
10537;SDS011;5317;49.048;8.468;2022-09-01T05:41:18;12.27;;;7.77;;
10537;SDS011;5317;49.048;8.468;2022-09-01T05:43:48;8.70;;;7.80;;
10537;SDS011;5317;49.048;8.468;2022-09-01T05:46:17;10.67;;;8.10;;
10537;SDS011;5317;49.048;8.468;2022-09-01T05:48:48;10.77;;;8.57;;
10537;SDS011;5317;49.048;8.468;2022-09-01T05:51:20;8.63;;;7.60;;
10537;SDS011;5317;49.048;8.468;2022-09-01T05:53:51;9.00;;;7.60;;
10537;SDS011;5317;49.048;8.468;2022-09-01T05:56:23;8.10;;;7.30;;
10537;SDS011;5317;49.048;8.468;2022-09-01T05:58:52;10.53;;;8.17;;
10537;SDS011;5317;49.048;8.468;2022-09-01T06:01:24;9.07;;;7.47;;
10537;SDS011;5317;49.048;8.468;2022-09-01T06:03:58;10.23;;;8.70;;
10537;SDS011;5317;49.048;8.468;2022-09-01T06:06:33;9.17;;;7.50;;
10537;SDS011;5317;49.048;8.468;2022-09-01T06:09:05;9.37;;;8.37;;
10537;SDS011;5317;49.048;8.468;2022-09-01T06:11:36;10.83;;;8.93;;
10537;SDS011;5317;49.048;8.468;2022-09-01T06:14:06;8.83;;;8.00;;
10537;SDS011;5317;49.048;8.468;2022-09-01T06:16:35;9.77;;;7.90;;
10537;SDS011;5317;49.048;8.468;2022-09-01T06:19:03;9.97;;;8.17;;
10537;SDS011;5317;49.048;8.468;2022-09-01T06:21:32;9.93;;;8.10;;
10537;SDS011;5317;49.048;8.468;2022-09-01T06:24:00;9.17;;;8.27;;
10537;SDS011;5317;49.048;8.468;2022-09-01T06:26:31;8.60;;;7.70;;
10537;SDS011;5317;49.048;8.468;2022-09-01T06:29:03;9.33;;;7.63;;
10537;SDS011;5317;49.048;8.468;2022-09-01T06:31:35;8.87;;;7.73;;
10537;SDS011;5317;49.048;8.468;2022-09-01T06:34:05;10.63;;;7.90;;
10537;SDS011;5317;49.048;8.468;2022-09-01T06:36:37;10.30;;;7.80;;
10537;SDS011;5317;49.048;8.468;2022-09-01T06:39:07;8.53;;;7.73;;
10537;SDS011;5317;49.048;8.468;2022-09-01T06:41:43;8.80;;;7.27;;
10537;SDS011;5317;49.048;8.468;2022-09-01T06:44:12;11.87;;;8.20;;
10537;SDS011;5317;49.048;8.468;2022-09-01T06:46:46;8.97;;;7.63;;
10537;SDS011;5317;49.048;8.468;2022-09-01T06:49:13;10.70;;;9.17;;
10537;SDS011;5317;49.048;8.468;2022-09-01T06:51:42;8.97;;;8.07;;
10537;SDS011;5317;49.048;8.468;2022-09-01T06:54:15;10.07;;;8.97;;
10537;SDS011;5317;49.048;8.468;2022-09-01T06:56:44;9.90;;;8.63;;
10537;SDS011;5317;49.048;8.468;2022-09-01T06:59:11;10.90;;;8.80;;
10537;SDS011;5317;49.048;8.468;2022-09-01T07:01:39;10.50;;;9.30;;
10537;SDS011;5317;49.048;8.468;2022-09-01T07:04:07;9.27;;;8.23;;
10537;SDS011;5317;49.048;8.468;2022-09-01T07:06:35;9.20;;;7.90;;
10537;SDS011;5317;49.048;8.468;2022-09-01T07:09:07;8.93;;;8.03;;
10537;SDS011;5317;49.048;8.468;2022-09-01T07:11:36;9.40;;;7.90;;
10537;SDS011;5317;49.048;8.468;2022-09-01T07:14:04;8.10;;;7.30;;
10537;SDS011;5317;49.048;8.468;2022-09-01T07:16:32;10.47;;;8.43;;
10537;SDS011;5317;49.048;8.468;2022-09-01T07:19:03;9.20;;;8.23;;
10537;SDS011;5317;49.048;8.468;2022-09-01T07:21:39;8.67;;;7.70;;
10537;SDS011;5317;49.048;8.468;2022-09-01T07:24:10;8.93;;;8.03;;
10537;SDS011;5317;49.048;8.468;2022-09-01T07:26:42;8.70;;;7.80;;
10537;SDS011;5317;49.048;8.468;2022-09-01T07:29:13;9.33;;;7.53;;
10537;SDS011;5317;49.048;8.468;2022-09-01T07:31:45;8.43;;;7.63;;
10537;SDS011;5317;49.048;8.468;2022-09-01T07:34:13;7.50;;;6.73;;
10537;SDS011;5317;49.048;8.468;2022-09-01T07:36:41;9.53;;;8.03;;
10537;SDS011;5317;49.048;8.468;2022-09-01T07:39:11;10.23;;;7.93;;
10537;SDS011;5317;49.048;8.468;2022-09-01T07:41:39;8.07;;;6.97;;
10537;SDS011;5317;49.048;8.468;2022-09-01T07:44:08;8.57;;;6.93;;
10537;SDS011;5317;49.048;8.468;2022-09-01T07:46:39;10.10;;;7.40;;
10537;SDS011;5317;49.048;8.468;2022-09-01T07:49:07;8.17;;;6.80;;
10537;SDS011;5317;49.048;8.468;2022-09-01T07:51:35;9.80;;;6.83;;
10537;SDS011;5317;49.048;8.468;2022-09-01T07:54:03;8.83;;;6.93;;
10537;SDS011;5317;49.048;8.468;2022-09-01T07:56:32;7.13;;;6.27;;
10537;SDS011;5317;49.048;8.468;2022-09-01T07:59:00;9.97;;;6.87;;
10537;SDS011;5317;49.048;8.468;2022-09-01T08:01:28;8.37;;;7.17;;
10537;SDS011;5317;49.048;8.468;2022-09-01T08:03:55;7.07;;;6.00;;
10537;SDS011;5317;49.048;8.468;2022-09-01T08:06:26;8.13;;;6.80;;
10537;SDS011;5317;49.048;8.468;2022-09-01T08:08:55;9.13;;;6.57;;
10537;SDS011;5317;49.048;8.468;2022-09-01T08:11:26;7.37;;;6.60;;
10537;SDS011;5317;49.048;8.468;2022-09-01T08:13:56;6.33;;;5.73;;
10537;SDS011;5317;49.048;8.468;2022-09-01T08:16:28;7.67;;;6.33;;
10537;SDS011;5317;49.048;8.468;2022-09-01T08:18:56;7.80;;;6.17;;
10537;SDS011;5317;49.048;8.468;2022-09-01T08:21:25;6.20;;;5.60;;
10537;SDS011;5317;49.048;8.468;2022-09-01T08:23:53;5.63;;;5.00;;
10537;SDS011;5317;49.048;8.468;2022-09-01T08:26:21;6.07;;;5.47;;
10537;SDS011;5317;49.048;8.468;2022-09-01T08:28:51;6.23;;;5.63;;
10537;SDS011;5317;49.048;8.468;2022-09-01T08:31:21;6.67;;;4.97;;
10537;SDS011;5317;49.048;8.468;2022-09-01T08:33:51;5.97;;;5.27;;
10537;SDS011;5317;49.048;8.468;2022-09-01T08:36:19;5.90;;;5.30;;
10537;SDS011;5317;49.048;8.468;2022-09-01T08:38:47;5.67;;;5.07;;
10537;SDS011;5317;49.048;8.468;2022-09-01T08:41:15;5.83;;;5.10;;
10537;SDS011;5317;49.048;8.468;2022-09-01T08:43:58;5.23;;;4.73;;
10537;SDS011;5317;49.048;8.468;2022-09-01T08:46:38;5.80;;;5.30;;
10537;SDS011;5317;49.048;8.468;2022-09-01T08:49:11;6.40;;;5.03;;
10537;SDS011;5317;49.048;8.468;2022-09-01T08:51:45;6.07;;;5.47;;
10537;SDS011;5317;49.048;8.468;2022-09-01T08:54:20;5.80;;;5.20;;
10537;SDS011;5317;49.048;8.468;2022-09-01T08:56:53;5.87;;;5.27;;
10537;SDS011;5317;49.048;8.468;2022-09-01T08:59:26;5.30;;;4.80;;
10537;SDS011;5317;49.048;8.468;2022-09-01T09:01:58;5.40;;;4.90;;
10537;SDS011;5317;49.048;8.468;2022-09-01T09:04:43;6.07;;;5.10;;
10537;SDS011;5317;49.048;8.468;2022-09-01T09:07:27;6.07;;;5.33;;
10537;SDS011;5317;49.048;8.468;2022-09-01T09:10:15;5.47;;;4.97;;
10537;SDS011;5317;49.048;8.468;2022-09-01T09:12:48;5.40;;;4.87;;
10537;SDS011;5317;49.048;8.468;2022-09-01T09:15:36;4.90;;;4.43;;
10537;SDS011;5317;49.048;8.468;2022-09-01T09:18:15;5.30;;;4.80;;
10537;SDS011;5317;49.048;8.468;2022-09-01T09:20:53;5.93;;;5.03;;
10537;SDS011;5317;49.048;8.468;2022-09-01T09:23:23;5.67;;;5.17;;
10537;SDS011;5317;49.048;8.468;2022-09-01T09:25:58;5.30;;;4.80;;
10537;SDS011;5317;49.048;8.468;2022-09-01T09:28:25;5.80;;;5.20;;
10537;SDS011;5317;49.048;8.468;2022-09-01T09:33:54;6.07;;;5.20;;
10537;SDS011;5317;49.048;8.468;2022-09-01T09:36:27;5.70;;;4.93;;
10537;SDS011;5317;49.048;8.468;2022-09-01T09:39:06;6.40;;;5.20;;
10537;SDS011;5317;49.048;8.468;2022-09-01T09:41:37;5.40;;;4.90;;
10537;SDS011;5317;49.048;8.468;2022-09-01T09:44:14;5.17;;;4.67;;
10537;SDS011;5317;49.048;8.468;2022-09-01T09:46:49;5.33;;;4.83;;
10537;SDS011;5317;49.048;8.468;2022-09-01T09:49:20;5.10;;;4.60;;
10537;SDS011;5317;49.048;8.468;2022-09-01T09:51:51;4.47;;;4.07;;
10537;SDS011;5317;49.048;8.468;2022-09-01T09:54:22;5.17;;;4.17;;
10537;SDS011;5317;49.048;8.468;2022-09-01T09:57:02;4.90;;;4.40;;
10537;SDS011;5317;49.048;8.468;2022-09-01T09:59:37;4.10;;;3.77;;
10537;SDS011;5317;49.048;8.468;2022-09-01T10:02:16;4.47;;;4.07;;
10537;SDS011;5317;49.048;8.468;2022-09-01T10:04:58;4.07;;;3.60;;
10537;SDS011;5317;49.048;8.468;2022-09-01T10:07:47;4.50;;;4.10;;
10537;SDS011;5317;49.048;8.468;2022-09-01T10:10:24;4.90;;;4.10;;
10537;SDS011;5317;49.048;8.468;2022-09-01T10:12:57;4.17;;;3.80;;
10537;SDS011;5317;49.048;8.468;2022-09-01T10:15:27;4.40;;;4.00;;
10537;SDS011;5317;49.048;8.468;2022-09-01T10:17:59;4.20;;;3.80;;
10537;SDS011;5317;49.048;8.468;2022-09-01T10:20:34;4.37;;;3.97;;
10537;SDS011;5317;49.048;8.468;2022-09-01T10:23:04;4.00;;;3.60;;
10537;SDS011;5317;49.048;8.468;2022-09-01T10:25:33;4.67;;;4.20;;
10537;SDS011;5317;49.048;8.468;2022-09-01T10:28:05;4.27;;;3.87;;
10537;SDS011;5317;49.048;8.468;2022-09-01T10:30:42;4.60;;;4.20;;
10537;SDS011;5317;49.048;8.468;2022-09-01T10:33:13;3.67;;;3.37;;
10537;SDS011;5317;49.048;8.468;2022-09-01T10:35:44;4.07;;;3.67;;
10537;SDS011;5317;49.048;8.468;2022-09-01T10:38:15;3.90;;;3.60;;
10537;SDS011;5317;49.048;8.468;2022-09-01T10:40:46;4.73;;;3.90;;
10537;SDS011;5317;49.048;8.468;2022-09-01T10:58:31;4.17;;;3.87;;
10537;SDS011;5317;49.048;8.468;2022-09-01T11:07:39;3.60;;;3.30;;
10537;SDS011;5317;49.048;8.468;2022-09-01T11:10:21;4.40;;;4.00;;
10537;SDS011;5317;49.048;8.468;2022-09-01T11:16:24;4.53;;;3.43;;
10537;SDS011;5317;49.048;8.468;2022-09-01T11:19:21;3.87;;;3.53;;
10537;SDS011;5317;49.048;8.468;2022-09-01T11:22:08;3.90;;;3.60;;
10537;SDS011;5317;49.048;8.468;2022-09-01T11:24:55;3.70;;;3.40;;
10537;SDS011;5317;49.048;8.468;2022-09-01T11:28:00;4.07;;;3.67;;
10537;SDS011;5317;49.048;8.468;2022-09-01T11:30:45;5.73;;;3.73;;
10537;SDS011;5317;49.048;8.468;2022-09-01T11:36:19;4.10;;;3.70;;
10537;SDS011;5317;49.048;8.468;2022-09-01T11:38:57;5.80;;;3.33;;
10537;SDS011;5317;49.048;8.468;2022-09-01T11:41:33;4.10;;;3.70;;
10537;SDS011;5317;49.048;8.468;2022-09-01T11:44:20;4.40;;;4.00;;
10537;SDS011;5317;49.048;8.468;2022-09-01T11:46:51;4.00;;;3.63;;
10537;SDS011;5317;49.048;8.468;2022-09-01T11:49:28;4.03;;;3.73;;
10537;SDS011;5317;49.048;8.468;2022-09-01T11:51:59;4.67;;;4.00;;
10537;SDS011;5317;49.048;8.468;2022-09-01T11:54:35;4.20;;;3.90;;
10537;SDS011;5317;49.048;8.468;2022-09-01T11:57:18;3.90;;;3.60;;
10537;SDS011;5317;49.048;8.468;2022-09-01T11:59:51;3.87;;;3.57;;
10537;SDS011;5317;49.048;8.468;2022-09-01T12:02:20;4.27;;;3.87;;
10537;SDS011;5317;49.048;8.468;2022-09-01T12:04:54;4.77;;;3.23;;
10537;SDS011;5317;49.048;8.468;2022-09-01T12:07:24;4.10;;;3.77;;
10537;SDS011;5317;49.048;8.468;2022-09-01T12:10:17;3.23;;;2.87;;
10537;SDS011;5317;49.048;8.468;2022-09-01T12:12:51;3.30;;;3.00;;
10537;SDS011;5317;49.048;8.468;2022-09-01T12:15:30;3.07;;;2.87;;
10537;SDS011;5317;49.048;8.468;2022-09-01T12:18:14;3.60;;;3.30;;
10537;SDS011;5317;49.048;8.468;2022-09-01T12:20:47;2.90;;;2.70;;
10537;SDS011;5317;49.048;8.468;2022-09-01T12:23:18;3.20;;;2.90;;
10537;SDS011;5317;49.048;8.468;2022-09-01T12:25:52;3.67;;;3.37;;
10537;SDS011;5317;49.048;8.468;2022-09-01T12:28:22;4.03;;;2.90;;
10537;SDS011;5317;49.048;8.468;2022-09-01T12:30:56;3.03;;;2.83;;
10537;SDS011;5317;49.048;8.468;2022-09-01T12:33:25;3.13;;;2.93;;
10537;SDS011;5317;49.048;8.468;2022-09-01T12:41:49;3.10;;;2.73;;
10537;SDS011;5317;49.048;8.468;2022-09-01T12:44:32;3.00;;;2.70;;
10537;SDS011;5317;49.048;8.468;2022-09-01T12:47:12;3.00;;;2.70;;
10537;SDS011;5317;49.048;8.468;2022-09-01T12:50:33;3.63;;;2.80;;
10537;SDS011;5317;49.048;8.468;2022-09-01T12:53:19;2.90;;;2.70;;
10537;SDS011;5317;49.048;8.468;2022-09-01T12:55:56;2.90;;;2.70;;
10537;SDS011;5317;49.048;8.468;2022-09-01T12:58:43;3.73;;;3.07;;
10537;SDS011;5317;49.048;8.468;2022-09-01T13:01:26;2.93;;;2.63;;
10537;SDS011;5317;49.048;8.468;2022-09-01T13:04:11;2.70;;;2.30;;
10537;SDS011;5317;49.048;8.468;2022-09-01T13:06:49;2.90;;;2.70;;
10537;SDS011;5317;49.048;8.468;2022-09-01T13:09:17;3.20;;;2.30;;
10537;SDS011;5317;49.048;8.468;2022-09-01T13:11:45;2.73;;;2.37;;
10537;SDS011;5317;49.048;8.468;2022-09-01T13:14:13;3.43;;;2.60;;
10537;SDS011;5317;49.048;8.468;2022-09-01T13:16:43;3.37;;;2.57;;
10537;SDS011;5317;49.048;8.468;2022-09-01T13:19:12;2.80;;;2.60;;
10537;SDS011;5317;49.048;8.468;2022-09-01T13:21:39;5.43;;;2.67;;
10537;SDS011;5317;49.048;8.468;2022-09-01T13:24:06;3.03;;;2.67;;
10537;SDS011;5317;49.048;8.468;2022-09-01T13:26:34;2.67;;;2.47;;
10537;SDS011;5317;49.048;8.468;2022-09-01T13:29:01;2.60;;;2.40;;
10537;SDS011;5317;49.048;8.468;2022-09-01T13:31:28;2.60;;;2.40;;
10537;SDS011;5317;49.048;8.468;2022-09-01T13:33:57;2.43;;;2.23;;
10537;SDS011;5317;49.048;8.468;2022-09-01T13:36:26;2.47;;;2.27;;
10537;SDS011;5317;49.048;8.468;2022-09-01T13:38:53;3.23;;;2.30;;
10537;SDS011;5317;49.048;8.468;2022-09-01T13:41:21;2.60;;;2.40;;
10537;SDS011;5317;49.048;8.468;2022-09-01T13:43:50;2.60;;;2.40;;
10537;SDS011;5317;49.048;8.468;2022-09-01T13:46:17;2.43;;;2.23;;
10537;SDS011;5317;49.048;8.468;2022-09-01T13:48:45;3.93;;;2.70;;
10537;SDS011;5317;49.048;8.468;2022-09-01T13:51:12;3.17;;;2.27;;
10537;SDS011;5317;49.048;8.468;2022-09-01T13:53:51;2.47;;;2.27;;
10537;SDS011;5317;49.048;8.468;2022-09-01T13:56:19;2.57;;;2.37;;
10537;SDS011;5317;49.048;8.468;2022-09-01T13:58:46;2.90;;;2.70;;
10537;SDS011;5317;49.048;8.468;2022-09-01T14:01:14;3.17;;;2.30;;
10537;SDS011;5317;49.048;8.468;2022-09-01T14:03:41;2.80;;;2.60;;
10537;SDS011;5317;49.048;8.468;2022-09-01T14:06:09;2.67;;;2.47;;
10537;SDS011;5317;49.048;8.468;2022-09-01T14:08:36;2.70;;;2.50;;
10537;SDS011;5317;49.048;8.468;2022-09-01T14:11:05;3.00;;;2.60;;
10537;SDS011;5317;49.048;8.468;2022-09-01T14:13:33;3.33;;;2.50;;
10537;SDS011;5317;49.048;8.468;2022-09-01T14:16:08;2.33;;;2.13;;
10537;SDS011;5317;49.048;8.468;2022-09-01T14:18:36;3.70;;;2.67;;
10537;SDS011;5317;49.048;8.468;2022-09-01T14:21:04;3.60;;;2.43;;
10537;SDS011;5317;49.048;8.468;2022-09-01T14:23:37;3.07;;;2.20;;
10537;SDS011;5317;49.048;8.468;2022-09-01T14:26:08;2.60;;;2.40;;
10537;SDS011;5317;49.048;8.468;2022-09-01T14:28:38;2.83;;;2.63;;
10537;SDS011;5317;49.048;8.468;2022-09-01T14:31:10;2.40;;;2.20;;
10537;SDS011;5317;49.048;8.468;2022-09-01T14:33:39;2.43;;;2.23;;
10537;SDS011;5317;49.048;8.468;2022-09-01T14:36:08;2.70;;;2.50;;
10537;SDS011;5317;49.048;8.468;2022-09-01T14:38:44;2.60;;;2.10;;
10537;SDS011;5317;49.048;8.468;2022-09-01T14:41:14;2.43;;;2.23;;
10537;SDS011;5317;49.048;8.468;2022-09-01T14:43:46;2.70;;;2.03;;
10537;SDS011;5317;49.048;8.468;2022-09-01T14:46:14;3.13;;;2.63;;
10537;SDS011;5317;49.048;8.468;2022-09-01T14:48:44;2.73;;;2.53;;
10537;SDS011;5317;49.048;8.468;2022-09-01T14:51:18;2.33;;;2.13;;
10537;SDS011;5317;49.048;8.468;2022-09-01T14:53:50;2.43;;;2.23;;
10537;SDS011;5317;49.048;8.468;2022-09-01T14:56:20;2.40;;;2.20;;
10537;SDS011;5317;49.048;8.468;2022-09-01T14:58:50;2.50;;;2.30;;
10537;SDS011;5317;49.048;8.468;2022-09-01T15:01:22;3.30;;;2.50;;
10537;SDS011;5317;49.048;8.468;2022-09-01T15:03:50;2.50;;;2.30;;
10537;SDS011;5317;49.048;8.468;2022-09-01T15:06:19;2.40;;;2.20;;
10537;SDS011;5317;49.048;8.468;2022-09-01T15:08:48;2.60;;;2.40;;
10537;SDS011;5317;49.048;8.468;2022-09-01T15:11:18;2.40;;;2.20;;
10537;SDS011;5317;49.048;8.468;2022-09-01T15:13:47;2.80;;;2.60;;
10537;SDS011;5317;49.048;8.468;2022-09-01T15:16:17;2.40;;;2.20;;
10537;SDS011;5317;49.048;8.468;2022-09-01T15:18:47;2.67;;;2.47;;
10537;SDS011;5317;49.048;8.468;2022-09-01T15:21:18;2.90;;;2.60;;
10537;SDS011;5317;49.048;8.468;2022-09-01T15:23:48;3.07;;;2.67;;
10537;SDS011;5317;49.048;8.468;2022-09-01T15:26:16;2.90;;;2.60;;
10537;SDS011;5317;49.048;8.468;2022-09-01T15:28:47;4.23;;;2.50;;
10537;SDS011;5317;49.048;8.468;2022-09-01T15:31:16;2.80;;;2.37;;
10537;SDS011;5317;49.048;8.468;2022-09-01T15:33:46;2.77;;;2.57;;
10537;SDS011;5317;49.048;8.468;2022-09-01T15:36:14;5.70;;;3.30;;
10537;SDS011;5317;49.048;8.468;2022-09-01T15:38:46;2.70;;;2.50;;
10537;SDS011;5317;49.048;8.468;2022-09-01T15:41:14;2.30;;;2.10;;
10537;SDS011;5317;49.048;8.468;2022-09-01T15:43:42;2.40;;;2.20;;
10537;SDS011;5317;49.048;8.468;2022-09-01T15:46:11;2.70;;;2.30;;
10537;SDS011;5317;49.048;8.468;2022-09-01T15:48:39;2.30;;;2.10;;
10537;SDS011;5317;49.048;8.468;2022-09-01T15:51:26;2.60;;;2.40;;
10537;SDS011;5317;49.048;8.468;2022-09-01T15:53:58;2.37;;;2.17;;
10537;SDS011;5317;49.048;8.468;2022-09-01T15:56:30;2.50;;;2.30;;
10537;SDS011;5317;49.048;8.468;2022-09-01T15:58:58;2.20;;;2.10;;
10537;SDS011;5317;49.048;8.468;2022-09-01T16:01:28;2.60;;;2.40;;
10537;SDS011;5317;49.048;8.468;2022-09-01T16:03:58;3.23;;;2.77;;
10537;SDS011;5317;49.048;8.468;2022-09-01T16:06:26;2.70;;;2.50;;